Aktualne dane pomiarowe

Uwaga, wersja testowa! Automatyczne pobieranie danych za pomocą narzędzi lub skryptów to umożliwiających jest zabronione.

Dane meteo z obszaru Polski uzyskane na podstawie depesz SYNOP pobieranych co godzinę z NWS. Najedź myszką na symbol przedstawiony w tabeli, aby uzyskać informacje co do jego znaczenia. Prosimy pamiętać, że to testowa wersja strony, która jeszcze nie jest ukończona. Stworzono również jest krótki FAQ dotyczący korzystania z tej podstrony Anomalie temperatury w chwili obecnej odniesione są do okresu referencyjnego 1951-2016. Okres ten będzie później zmieniony na 1981-2010. Kliknij ikonę aby pobrać plik CSV. Kliknij ikonę aby wygenerować mapę synoptyczną dla danego terminu.

Wybierz Datę:    

        

Rzeszów-Jasionka (12580)

Dane terminowe dla wybranej stacji. Kliknij datę, aby otrzymać dane z tego terminu dla wszystkich stacji.

TemperaturaZachmurzenieWiatrCiśnienieOpadyPogoda
 Data t td wb tx tn tg rh  Nt Nl Cl Cm Ch ws wd g1 g2 wx mslp ppp ch 24h 12h t ww ww w1 w2  
2019-06-22 23:00:00 17.9 17.3 17.5--- 9630.0wxwxwx2wx--21019.2 993.6 0.2---------
2019-06-22 22:00:00 18.1 17.1 17.4--- 9430.0wxwxwx2wx--21019.1 993.5 -0.1---------
2019-06-22 21:00:00 18.5 17.5 17.8--- 9430.0wxwxwx2wx--21019.1 993.5 0.0---------
2019-06-22 20:00:00 18.8 17.6 17.9--- 9330.0wxwxwxwx2wx--21019.0 993.4 0.0---------
2019-06-22 19:00:00 20.4 17.8 18.5--- 8530.0wx-2wx--21019.0 993.6 0.0---------
2019-06-22 18:00:00 21.2 18.0 18.9 25.9 19.0- 8230.0wxwxwxwxwx3wx--31018.8 993.5 0.0- 0.012------
2019-06-22 17:00:00 23.1 18.0 19.6--- 7330.0wxwxwxwxwx5wx--51018.6 993.4 -0.3---------
2019-06-22 16:00:00 23.9 17.2 19.4--- 6630.0wxwxwxwxwx5wx--51018.7 993.6 -0.4---------
2019-06-22 15:00:00 24.5 17.5 19.8--- 6530.0wxwxwxwxwx5wx--51018.6 993.5 -0.8---------
2019-06-22 14:00:00 24.9 16.3 19.3--- 5930.0wxwxwxwxwx5wx--51018.7 993.7 -1.3---------
2019-06-22 13:00:00 25.3 16.2 19.3--- 5730.0wxwxwxwx5wx--51019.0 994.0 -1.0---------
2019-06-22 12:00:00 23.8 17.1 19.3--- 6630.0wxwxwxwx4wx--41019.4 994.3 -0.5- 0.06------
2019-06-22 11:00:00 22.5 17.4 19.0--- 7330.0wxwxwxwx4wx---1020.3 995.0 0.3---------
2019-06-22 10:00:00 23.0 16.8 18.8--- 6830.0wxwxwxwx3wx--31020.2 995.0 0.6---------
2019-06-22 09:00:00 22.3 17.2 18.8--- 7330.0wxwxwxwx4wx--41020.1 994.8 0.4---------
2019-06-22 08:00:00 22.0 17.6 18.9--- 7630.0wxwxwxwx3wx--31020.0 994.7 0.7---------
2019-06-22 07:00:00 20.7 18.3 19.0--- 8620.0wxwxwxwxwx3wx--31019.8 994.4 0.7---------
2019-06-22 06:00:00 19.0 18.2 18.4 19.0 15.7 13 9510.0wxwxwxwx2wx---1020.0 994.4 1.1 11.2 11.224------
2019-06-22 05:00:00 17.8 17.8 17.8--- 1008.0wxwxwxwx2wx--21019.7 994.0 1.1---wx---
2019-06-22 04:00:00 16.8 16.8 16.8--- 1003.0wxwxwx2wx--21019.4 993.7 1.2---wx---
2019-06-22 03:00:00 16.3 16.3 16.3--- 1005.0wxwxwx3wx--31019.1 993.3 1.3---wx---
2019-06-22 02:00:00 15.8 15.8 15.8--- 1006.0wxwxwxwx3wx--31018.7 992.9 1.0---wx---
2019-06-22 01:00:00 15.9 15.9 15.9--- 10010.0wx-wx1wx--11018.3 992.5 0.8---------
2019-06-22 00:00:00 17.1 16.9 16.9--- 9920.0wx-wx2wx--21017.7 992.0 0.7--6wx-w1--
2019-06-21 23:00:00 17.5 17.5 17.5--- 10020.0wx-wx2wx--21017.5 991.9 0.9---------
2019-06-21 22:00:00 17.5 17.5 17.5--- 10020.0wx-wx2wx--21017.3 991.7 0.7---------
2019-06-21 21:00:00 17.5 17.5 17.5--- 10020.0wx-wx3wx--31016.9 991.3 0.8---wx-w1--
2019-06-21 20:00:00 17.8 17.8 17.8--- 10020.0wxwxwxwx3wx--31016.6 991.0 0.3---wx-w1--
2019-06-21 19:00:00 17.9 17.9 17.9--- 10015.0wxwxwxwx2wx--21016.6 991.0 2.4---wx---
2019-06-21 18:00:00 17.7 17.7 17.7 26.8 17.6- 10010.0wxwxwx1wx-1211016.1 990.5 1.6- 11.012wx---
2019-06-21 17:00:00 18.0 17.5 17.6--- 972.5wxwxwx3wx---1016.3 990.7 2.0---wx---
2019-06-21 16:00:00 25.7 18.1 20.6--- 6330.0wxwxwxwxwx3wx--31013.4 988.6 -0.4---------
2019-06-21 15:00:00 25.9 17.8 20.5--- 6130.0wxwxwxwxwx4wx---1013.7 988.9 -0.5---------
2019-06-21 14:00:00 26.7 16.9 20.3--- 5530.0wxwxwxwx4wx--41013.5 988.7 -0.9---------
2019-06-21 13:00:00 25.8 18.2 20.7--- 6330.0wxwxwxwxwx3wx--31013.8 989.0 -1.0---------
2019-06-21 12:00:00 25.0 17.2 19.8--- 6230.0wxwxwxwx5wx--51014.3 989.4 -0.7- 0.06------
2019-06-21 11:00:00 26.3 18.7 21.1--- 6330.0wxwxwxwxwx4wx---1014.4 989.6 -0.4---------
2019-06-21 10:00:00 25.3 17.2 19.9--- 6130.0wxwxwxwxwx5wx---1014.9 990.0 0.3---------
2019-06-21 09:00:00 24.3 17.3 19.6--- 6530.0wxwxwxwxwx4wx--41015.1 990.1 0.8---------
2019-06-21 08:00:00 22.9 17.4 19.1--- 7130.0wxwxwxwx4wx--41015.1 990.0 1.2---------
2019-06-21 07:00:00 22.3 17.2 18.8--- 7330.0wx-wx5wx--51014.8 989.7 1.0---------
2019-06-21 06:00:00 21.7 17.5 18.8 22.4 16.9 14 7730.0wx-wx5wx--51014.5 989.3 1.0- 0.012------
2019-06-21 05:00:00 21.1 18.7 19.4--- 8630.0wx-wx2wx--21014.0 988.8 0.8---------
2019-06-21 04:00:00 19.5 18.2 18.5--- 9230.0wx-wx2wx--21014.1 988.7 0.9---------
2019-06-21 03:00:00 17.9 17.6 17.7--- 9830.0wx-wx1wx--11013.8 988.3 1.0---------
2019-06-21 02:00:00 17.8 17.2 17.4--- 9630.0wx-wx1wx--11013.5 988.0 0.7---------
2019-06-21 01:00:00 17.2 16.9 17.0--- 9830.0wx-wxwx1wx--11013.3 987.8 0.3---------
2019-06-21 00:00:00 17.3 16.7 16.8--- 9630.0wx-wx2wx--21012.8 987.3 -0.2- 0.06------
1.1 ms

 

Print Friendly, PDF & Email